Time;durP1;ratioP1;P1;durP2;ratioP2;P2;SDS_P1;SDS_P2;PMS_P1;PMS_P2;Temp;Humidity;BMP_temperature;BMP_pressure;BME280_temperature;BME280_humidity;BME280_pressure;Samples;Min_cycle;Max_cycle;Signal;HPM_P1;HPM_P2
2023/04/17 00:01:08;;;;;;;20.87;13.40;;;;;;;8.56;100.00;98566.69;5052695;28;20208;-80
2023/04/17 00:03:35;;;;;;;19.87;13.70;;;;;;;8.49;100.00;98560.03;5053186;28;20230;-80
2023/04/17 00:06:02;;;;;;;18.57;13.93;;;;;;;8.57;100.00;98563.13;5053223;28;20204;-79
2023/04/17 00:08:28;;;;;;;17.90;13.20;;;;;;;8.60;100.00;98565.56;5053113;28;20209;-80
2023/04/17 00:10:55;;;;;;;18.60;13.70;;;;;;;8.60;100.00;98568.22;5052451;28;20558;-80
2023/04/17 00:13:21;;;;;;;19.70;13.07;;;;;;;8.59;100.00;98562.09;5053041;28;20236;-81
2023/04/17 00:15:48;;;;;;;19.10;13.07;;;;;;;8.51;100.00;98560.81;5052978;28;20220;-79
2023/04/17 00:18:15;;;;;;;18.03;13.30;;;;;;;8.57;100.00;98563.13;5053029;28;20578;-79
2023/04/17 00:20:42;;;;;;;21.00;14.13;;;;;;;8.59;100.00;98566.50;5062247;28;20205;-80
2023/04/17 00:23:09;;;;;;;18.47;13.30;;;;;;;8.50;100.00;98556.50;5058830;28;20223;-79
2023/04/17 00:25:35;;;;;;;19.40;13.50;;;;;;;8.51;100.00;98559.00;5065768;28;20240;-79
2023/04/17 00:28:01;;;;;;;20.57;13.53;;;;;;;8.47;100.00;98556.63;5076358;28;20214;-79
2023/04/17 00:30:28;;;;;;;19.63;13.53;;;;;;;8.49;100.00;98554.75;5075156;28;20219;-79
2023/04/17 00:32:54;;;;;;;19.47;13.63;;;;;;;8.47;100.00;98551.38;5076767;28;20227;-79
2023/04/17 00:35:22;;;;;;;18.97;13.70;;;;;;;8.34;100.00;98550.34;5076870;28;20235;-81
2023/04/17 00:37:49;;;;;;;19.50;13.67;;;;;;;8.32;100.00;98553.03;5073340;28;20193;-80
2023/04/17 00:40:16;;;;;;;18.90;14.13;;;;;;;8.34;100.00;98555.59;5075158;28;20213;-79
2023/04/17 00:42:42;;;;;;;20.87;14.93;;;;;;;8.36;100.00;98559.00;5076596;28;20212;-81
2023/04/17 00:45:10;;;;;;;19.87;14.30;;;;;;;8.43;100.00;98549.81;5076239;28;20237;-79
2023/04/17 00:47:37;;;;;;;20.13;13.60;;;;;;;8.35;100.00;98552.91;5076264;28;20200;-81
2023/04/17 00:50:04;;;;;;;18.77;13.40;;;;;;;8.43;100.00;98542.78;5075900;28;20214;-79
2023/04/17 00:52:32;;;;;;;18.23;13.10;;;;;;;8.42;100.00;98537.59;5076594;28;20232;-81
2023/04/17 00:54:59;;;;;;;19.90;13.63;;;;;;;8.46;100.00;98544.41;5076843;28;20225;-80
2023/04/17 00:57:26;;;;;;;19.03;13.40;;;;;;;8.40;100.00;98542.09;5077700;28;20192;-79
2023/04/17 00:59:55;;;;;;;18.27;12.90;;;;;;;8.41;100.00;98546.44;5075067;28;20185;-81
2023/04/17 01:02:22;;;;;;;20.40;13.87;;;;;;;8.36;100.00;98537.91;5074092;28;20193;-80
2023/04/17 01:04:49;;;;;;;20.43;13.70;;;;;;;8.43;100.00;98537.53;5074774;28;20232;-80
2023/04/17 01:07:16;;;;;;;19.17;13.33;;;;;;;8.34;100.00;98535.38;5060705;28;20205;-79
2023/04/17 01:09:43;;;;;;;20.90;13.17;;;;;;;8.33;100.00;98538.09;5052819;28;20210;-81
2023/04/17 01:12:17;;;;;;;19.37;14.20;;;;;;;8.27;100.00;98527.91;5053238;28;20613;-81
2023/04/17 01:14:44;;;;;;;18.90;12.83;;;;;;;8.27;100.00;98533.16;5052896;28;20737;-80
2023/04/17 01:17:13;;;;;;;19.47;13.87;;;;;;;8.22;100.00;98533.41;5052684;28;20749;-81
2023/04/17 01:19:40;;;;;;;19.50;13.30;;;;;;;8.27;100.00;98533.16;5052479;28;20209;-80
2023/04/17 01:22:06;;;;;;;20.37;15.10;;;;;;;8.29;100.00;98528.66;5053155;28;20208;-80
2023/04/17 01:24:34;;;;;;;19.73;14.17;;;;;;;8.37;100.00;98529.94;5051472;28;20236;-81
2023/04/17 01:27:01;;;;;;;18.47;13.27;;;;;;;8.42;100.00;98529.69;5051554;28;20207;-81
2023/04/17 01:29:27;;;;;;;18.80;13.17;;;;;;;8.44;100.00;98527.84;5050336;28;20212;-81
2023/04/17 01:31:54;;;;;;;20.63;13.30;;;;;;;8.45;100.00;98534.81;5051412;28;20354;-80
2023/04/17 01:34:20;;;;;;;23.63;14.50;;;;;;;8.41;100.00;98535.91;5051300;28;20234;-80
2023/04/17 01:36:47;;;;;;;19.07;12.97;;;;;;;8.37;100.00;98539.63;5051336;28;20208;-81
2023/04/17 01:39:13;;;;;;;18.03;13.20;;;;;;;8.34;100.00;98534.53;5050697;28;20237;-81
2023/04/17 01:41:41;;;;;;;20.70;13.67;;;;;;;8.27;100.00;98539.25;5051255;28;20207;-80
2023/04/17 01:44:08;;;;;;;21.10;14.80;;;;;;;8.25;100.00;98541.13;5051177;28;20220;-81
2023/04/17 01:46:34;;;;;;;20.10;14.83;;;;;;;8.26;100.00;98542.00;5051470;28;20648;-80
2023/04/17 01:49:01;;;;;;;21.07;14.10;;;;;;;8.29;100.00;98531.28;5051102;28;20215;-81
2023/04/17 01:51:27;;;;;;;20.23;13.73;;;;;;;8.38;100.00;98536.91;5050725;28;20314;-81
2023/04/17 01:53:54;;;;;;;21.77;13.07;;;;;;;8.40;100.00;98534.19;5051096;28;20418;-81
2023/04/17 01:56:20;;;;;;;20.10;13.73;;;;;;;8.41;100.00;98541.16;5051189;28;20219;-80
2023/04/17 01:58:48;;;;;;;19.50;14.33;;;;;;;8.35;100.00;98528.31;5050905;28;20208;-80
2023/04/17 02:01:15;;;;;;;20.90;14.40;;;;;;;8.32;100.00;98531.13;5050200;28;20686;-81
2023/04/17 02:03:41;;;;;;;22.53;14.80;;;;;;;8.36;100.00;98530.03;5051066;28;20224;-81
2023/04/17 02:06:08;;;;;;;21.23;14.17;;;;;;;8.26;100.00;98524.41;5050875;28;20239;-81
2023/04/17 02:08:34;;;;;;;18.47;13.47;;;;;;;8.26;100.00;98520.94;5050922;28;20209;-81
2023/04/17 02:11:01;;;;;;;21.00;14.10;;;;;;;8.29;100.00;98529.53;5050492;28;20239;-81
2023/04/17 02:13:27;;;;;;;19.13;13.90;;;;;;;8.31;100.00;98518.88;5050640;28;20284;-81
2023/04/17 02:15:55;;;;;;;21.13;14.10;;;;;;;8.26;100.00;98520.94;5050607;28;20220;-81
2023/04/17 02:18:22;;;;;;;22.60;15.27;;;;;;;8.19;100.00;98530.03;5050821;28;20208;-81
2023/04/17 02:20:48;;;;;;;24.93;15.47;;;;;;;8.18;100.00;98528.34;5050046;28;20223;-81
2023/04/17 02:23:15;;;;;;;20.57;14.27;;;;;;;8.21;100.00;98533.50;5050880;28;20201;-81
2023/04/17 02:25:41;;;;;;;21.77;14.43;;;;;;;8.21;100.00;98533.50;5131042;22;20413;-86
2023/04/17 02:28:08;;;;;;;22.97;15.83;;;;;;;8.23;100.00;98526.34;5137392;28;20262;-86
2023/04/17 02:30:34;;;;;;;21.47;15.03;;;;;;;8.19;100.00;98535.31;5136598;28;20201;-86
2023/04/17 02:33:02;;;;;;;22.80;15.60;;;;;;;8.09;100.00;98534.94;5136987;28;20288;-86
2023/04/17 02:35:31;;;;;;;21.93;15.00;;;;;;;8.14;100.00;98538.19;5137171;28;20288;-87
2023/04/17 02:37:58;;;;;;;22.87;15.67;;;;;;;8.19;100.00;98536.19;5137238;28;20198;-86
2023/04/17 02:40:24;;;;;;;22.20;15.30;;;;;;;8.21;100.00;98538.75;5131495;28;20204;-86
2023/04/17 02:42:51;;;;;;;22.00;14.90;;;;;;;8.13;100.00;98528.59;5129078;28;20203;-86
2023/04/17 02:45:17;;;;;;;20.77;14.70;;;;;;;8.18;100.00;98536.25;5137142;28;20203;-86
2023/04/17 02:47:44;;;;;;;22.77;15.27;;;;;;;8.18;100.00;98534.47;5130287;28;20229;-87
2023/04/17 02:50:12;;;;;;;23.33;14.67;;;;;;;8.22;100.00;98532.56;5122186;28;20253;-86
2023/04/17 02:52:40;;;;;;;19.40;14.83;;;;;;;8.22;100.00;98535.19;5136481;28;20236;-86
2023/04/17 02:55:08;;;;;;;21.00;13.77;;;;;;;8.33;100.00;98532.84;5134410;28;20219;-86
2023/04/17 02:57:35;;;;;;;21.17;14.93;;;;;;;8.26;100.00;98526.22;5112282;28;20222;-86
2023/04/17 03:00:06;;;;;;;19.47;13.27;;;;;;;8.31;100.00;98527.66;5111412;28;20204;-86
2023/04/17 03:02:33;;;;;;;21.37;14.83;;;;;;;8.31;100.00;98524.16;5127682;28;20507;-86
2023/04/17 03:05:02;;;;;;;21.30;14.43;;;;;;;8.29;100.00;98531.28;5135829;28;20231;-87
2023/04/17 03:07:31;;;;;;;23.43;14.83;;;;;;;8.32;100.00;98533.78;5136479;28;20215;-86
2023/04/17 03:09:57;;;;;;;21.27;14.27;;;;;;;8.30;100.00;98531.22;5135998;28;20266;-87
2023/04/17 03:12:24;;;;;;;21.40;13.57;;;;;;;8.31;100.00;98542.59;5136433;28;20191;-87
2023/04/17 03:14:51;;;;;;;21.57;14.47;;;;;;;8.25;100.00;98530.59;5135577;28;20218;-87
2023/04/17 03:17:19;;;;;;;20.77;15.03;;;;;;;8.17;100.00;98537.19;5136398;28;20200;-86
2023/04/17 03:19:45;;;;;;;20.20;14.27;;;;;;;8.16;100.00;98540.75;5135625;28;20193;-87
2023/04/17 03:22:12;;;;;;;22.40;15.03;;;;;;;8.23;100.00;98539.53;5135941;28;20221;-87
2023/04/17 03:24:40;;;;;;;21.77;14.57;;;;;;;8.29;100.00;98529.53;5135853;28;20219;-87
2023/04/17 03:27:07;;;;;;;21.70;15.07;;;;;;;8.26;100.00;98536.72;5135984;28;20189;-87
2023/04/17 03:29:33;;;;;;;23.60;14.57;;;;;;;8.23;100.00;98531.63;5135458;28;20208;-87
2023/04/17 03:32:00;;;;;;;21.63;14.13;;;;;;;8.19;100.00;98536.19;5134158;28;20226;-87
2023/04/17 03:34:27;;;;;;;20.93;14.27;;;;;;;8.26;100.00;98542.84;5138743;28;20238;-85
2023/04/17 03:36:54;;;;;;;21.13;13.90;;;;;;;8.25;100.00;98541.13;5139570;28;20191;-87
2023/04/17 03:39:20;;;;;;;22.27;13.67;;;;;;;8.23;100.00;98536.88;5139130;28;20258;-87
2023/04/17 03:41:48;;;;;;;22.63;15.37;;;;;;;8.21;100.00;98544.03;5140313;28;20191;-87
2023/04/17 03:44:16;;;;;;;22.20;14.63;;;;;;;8.19;100.00;98540.56;5140176;28;20326;-87
2023/04/17 03:46:42;;;;;;;20.47;14.33;;;;;;;8.30;100.00;98538.25;5140322;28;20190;-88
2023/04/17 03:49:09;;;;;;;20.53;14.27;;;;;;;8.23;100.00;98542.16;5139476;28;20203;-88
2023/04/17 03:51:35;;;;;;;21.33;14.10;;;;;;;8.22;100.00;98548.34;5139985;28;20199;-87
2023/04/17 03:54:02;;;;;;;19.13;13.40;;;;;;;8.26;100.00;98540.19;5139785;28;20238;-87
2023/04/17 03:56:28;;;;;;;19.40;14.03;;;;;;;8.33;100.00;98546.00;5139980;28;20220;-88
2023/04/17 03:58:56;;;;;;;19.63;14.03;;;;;;;8.31;100.00;98548.72;5139823;28;20185;-88
2023/04/17 04:01:27;;;;;;;22.37;15.07;;;;;;;8.23;100.00;98543.00;5138439;28;20257;-87
2023/04/17 04:03:53;;;;;;;21.20;14.50;;;;;;;8.22;100.00;98551.84;5139649;28;20195;-87
2023/04/17 04:06:21;;;;;;;20.70;15.03;;;;;;;8.26;100.00;98549.91;5139772;28;20191;-88
2023/04/17 04:08:47;;;;;;;21.50;13.33;;;;;;;8.28;100.00;98554.16;5139723;28;20194;-87
2023/04/17 04:11:14;;;;;;;20.57;14.60;;;;;;;8.22;100.00;98545.72;5139114;28;20198;-88
2023/04/17 04:13:41;;;;;;;19.40;13.83;;;;;;;8.17;100.00;98552.97;5139820;28;20214;-88
2023/04/17 04:16:09;;;;;;;20.13;14.60;;;;;;;8.24;100.00;98554.38;5139637;28;20246;-87
2023/04/17 04:18:36;;;;;;;19.00;13.47;;;;;;;8.27;100.00;98556.88;5138407;28;20194;-86
2023/04/17 04:21:02;;;;;;;21.03;14.23;;;;;;;8.25;100.00;98558.72;5138519;28;20225;-85
2023/04/17 04:23:29;;;;;;;22.23;14.63;;;;;;;8.20;100.00;98558.13;5138863;28;20268;-86
2023/04/17 04:25:56;;;;;;;21.00;14.00;;;;;;;8.18;100.00;98552.91;5138600;28;20240;-86
2023/04/17 04:28:23;;;;;;;20.10;14.10;;;;;;;8.16;100.00;98559.19;5138785;28;20190;-86
2023/04/17 04:30:50;;;;;;;23.20;15.03;;;;;;;8.15;100.00;98560.13;5137402;28;20210;-88
2023/04/17 04:33:19;;;;;;;21.27;14.40;;;;;;;8.18;100.00;98565.19;5139177;28;20279;-88
2023/04/17 04:35:46;;;;;;;20.70;15.10;;;;;;;8.24;100.00;98557.00;5138846;28;20256;-87
2023/04/17 04:38:12;;;;;;;19.87;13.93;;;;;;;8.30;100.00;98559.31;5139140;28;20200;-88
2023/04/17 04:40:42;;;;;;;21.43;14.37;;;;;;;8.22;100.00;98559.75;5124765;28;20202;-88
2023/04/17 04:43:09;;;;;;;20.40;13.97;;;;;;;8.30;100.00;98565.44;5114614;28;20203;-87
2023/04/17 04:45:36;;;;;;;22.27;14.27;;;;;;;8.25;100.00;98567.47;5114403;28;20238;-88
2023/04/17 04:48:03;;;;;;;21.57;14.37;;;;;;;8.26;100.00;98563.06;5135889;28;20206;-88
2023/04/17 04:50:31;;;;;;;21.13;14.83;;;;;;;8.22;100.00;98561.53;5138312;28;20186;-87
2023/04/17 04:52:57;;;;;;;20.07;14.47;;;;;;;8.26;100.00;98570.97;5138805;28;20253;-88
2023/04/17 04:55:25;;;;;;;21.67;14.57;;;;;;;8.25;100.00;98571.88;5138662;28;20223;-88
2023/04/17 04:57:53;;;;;;;21.40;15.17;;;;;;;8.20;100.00;98573.94;5126961;28;20292;-88
2023/04/17 05:00:19;;;;;;;26.30;15.80;;;;;;;8.29;100.00;98578.69;5119212;28;20217;-88
2023/04/17 05:02:46;;;;;;;20.40;14.33;;;;;;;8.34;100.00;98576.66;5114520;28;20207;-88
2023/04/17 05:05:12;;;;;;;22.57;14.27;;;;;;;8.26;100.00;98576.25;5114814;28;20294;-88
2023/04/17 05:07:40;;;;;;;23.07;15.60;;;;;;;8.27;100.00;98580.56;5120810;28;20232;-88
2023/04/17 05:10:08;;;;;;;19.87;14.60;;;;;;;8.35;100.00;98583.63;5120064;28;20218;-88
2023/04/17 05:12:35;;;;;;;21.20;14.20;;;;;;;8.29;100.00;98581.31;5118208;28;20206;-88
2023/04/17 05:15:01;;;;;;;23.80;15.17;;;;;;;8.27;100.00;98580.56;5126239;28;20321;-88
2023/04/17 05:17:28;;;;;;;23.73;14.93;;;;;;;8.27;100.00;98580.56;5119898;28;20199;-88
2023/04/17 05:19:54;;;;;;;22.43;14.17;;;;;;;8.24;100.00;98580.72;5116187;28;20214;-88
2023/04/17 05:22:21;;;;;;;22.90;15.47;;;;;;;8.16;100.00;98578.47;5117117;28;20211;-88
2023/04/17 05:24:49;;;;;;;22.37;15.00;;;;;;;8.19;100.00;98580.97;5124378;28;20369;-88
2023/04/17 05:27:15;;;;;;;24.83;15.13;;;;;;;8.29;100.00;98579.56;5126775;28;20203;-88
2023/04/17 05:29:42;;;;;;;21.73;14.20;;;;;;;8.21;100.00;98576.44;5132034;28;20197;-88
2023/04/17 05:32:08;;;;;;;19.97;14.30;;;;;;;8.16;100.00;98578.47;5136795;28;20258;-87
2023/04/17 05:34:35;;;;;;;20.57;14.47;;;;;;;8.17;100.00;98587.19;5136349;28;20232;-87
2023/04/17 05:37:02;;;;;;;19.93;14.77;;;;;;;8.13;100.00;98583.88;5136600;28;20334;-87
2023/04/17 05:39:29;;;;;;;21.80;13.77;;;;;;;8.18;100.00;98583.63;5135733;28;20209;-87
2023/04/17 05:41:57;;;;;;;22.43;15.30;;;;;;;8.16;100.00;98582.88;5136293;28;20194;-87
2023/04/17 05:44:23;;;;;;;21.23;14.47;;;;;;;8.07;100.00;98586.84;5122763;28;20223;-87
2023/04/17 05:46:50;;;;;;;23.13;14.93;;;;;;;8.05;100.00;98595.75;5123722;28;20202;-88
2023/04/17 05:49:16;;;;;;;21.53;15.23;;;;;;;8.05;100.00;98595.75;5116800;28;20297;-87
2023/04/17 05:51:43;;;;;;;19.77;13.97;;;;;;;8.06;100.00;98600.06;5115939;28;20210;-88
2023/04/17 05:54:09;;;;;;;22.67;15.57;;;;;;;8.07;100.00;98596.50;5119441;28;20233;-87
2023/04/17 05:56:36;;;;;;;23.83;15.83;;;;;;;8.04;100.00;98594.91;5127153;28;20198;-87
2023/04/17 05:59:04;;;;;;;22.20;14.23;;;;;;;8.04;100.00;98597.53;5126929;28;20202;-87
2023/04/17 06:01:31;;;;;;;23.03;15.50;;;;;;;8.05;100.00;98598.38;5126888;28;20321;-87
2023/04/17 06:03:57;;;;;;;22.57;14.93;;;;;;;7.97;100.00;98597.91;5128681;28;20206;-87
2023/04/17 06:06:25;;;;;;;21.80;15.17;;;;;;;8.00;100.00;98592.47;5129454;28;20207;-87
2023/04/17 06:08:53;;;;;;;22.27;15.13;;;;;;;8.01;100.00;98594.19;5128739;28;20233;-87
2023/04/17 06:11:19;;;;;;;22.70;14.80;;;;;;;8.00;100.00;98598.63;5128207;28;20211;-87
2023/04/17 06:13:46;;;;;;;22.33;14.97;;;;;;;8.03;100.00;98600.25;5119148;28;20221;-88
2023/04/17 06:16:14;;;;;;;22.50;14.47;;;;;;;8.01;100.00;98605.56;5119010;28;20221;-88
2023/04/17 06:18:41;;;;;;;22.13;14.73;;;;;;;8.06;100.00;98597.44;5119750;28;20277;-88
2023/04/17 06:21:08;;;;;;;22.70;15.17;;;;;;;8.04;100.00;98605.44;5119270;28;20274;-88
2023/04/17 06:23:35;;;;;;;21.77;15.33;;;;;;;8.04;100.00;98609.84;5128065;28;20198;-87
2023/04/17 06:26:01;;;;;;;22.20;15.33;;;;;;;8.02;100.00;98606.44;5129767;28;20221;-86
2023/04/17 06:28:28;;;;;;;22.77;14.30;;;;;;;8.08;100.00;98606.97;5137314;28;20197;-87
2023/04/17 06:30:54;;;;;;;24.83;15.23;;;;;;;8.07;100.00;98610.53;5136760;28;20263;-86
2023/04/17 06:33:22;;;;;;;20.13;14.50;;;;;;;8.13;100.00;98611.97;5131736;28;20232;-85
2023/04/17 06:35:49;;;;;;;21.97;15.07;;;;;;;8.15;100.00;98610.13;5127856;28;20287;-86
2023/04/17 06:38:24;;;;;;;21.23;13.97;;;;;;;8.23;100.00;98615.88;5126412;28;20207;-85
2023/04/17 06:40:51;;;;;;;21.80;13.93;;;;;;;8.21;100.00;98615.13;5117915;28;20214;-85
2023/04/17 06:43:17;;;;;;;22.33;14.37;;;;;;;8.22;100.00;98608.91;5109551;28;20206;-85
2023/04/17 06:45:44;;;;;;;22.00;14.60;;;;;;;8.30;100.00;98610.22;5111513;28;20313;-85
2023/04/17 06:48:11;;;;;;;19.30;13.77;;;;;;;8.24;100.00;98615.81;5110943;28;20211;-85
2023/04/17 06:50:38;;;;;;;21.20;14.10;;;;;;;8.25;100.00;98619.28;5107087;28;20212;-86
2023/04/17 06:53:05;;;;;;;22.70;14.00;;;;;;;8.25;100.00;98614.00;5108907;28;20214;-84
2023/04/17 06:55:32;;;;;;;20.97;13.67;;;;;;;8.28;100.00;98625.25;5109156;28;20230;-89
2023/04/17 06:57:58;;;;;;;23.23;14.27;;;;;;;8.33;100.00;98617.09;5111662;28;20209;-88
2023/04/17 07:00:25;;;;;;;22.07;14.50;;;;;;;8.28;100.00;98624.41;5111215;28;20213;-87
2023/04/17 07:02:51;;;;;;;18.57;13.17;;;;;;;8.31;100.00;98616.31;5113887;28;20208;-88
2023/04/17 07:05:18;;;;;;;20.43;13.57;;;;;;;8.27;100.00;98618.25;5115656;28;20218;-89
2023/04/17 07:07:46;;;;;;;22.83;14.77;;;;;;;8.20;100.00;98621.31;5115544;28;20213;-88
2023/04/17 07:10:14;;;;;;;23.27;14.20;;;;;;;8.24;100.00;98633.38;5115244;28;20207;-88
2023/04/17 07:12:41;;;;;;;22.30;14.63;;;;;;;8.29;100.00;98631.34;5115928;28;20292;-82
2023/04/17 07:15:08;;;;;;;20.03;13.17;;;;;;;8.36;100.00;98623.06;5115321;28;20232;-86
2023/04/17 07:17:35;;;;;;;20.00;13.90;;;;;;;8.31;100.00;98625.09;5115205;28;20210;-81
2023/04/17 07:20:01;;;;;;;18.37;12.87;;;;;;;8.40;100.00;98640.38;5114169;28;20203;-88
2023/04/17 07:22:28;;;;;;;18.37;12.30;;;;;;;8.47;100.00;98627.75;5115428;28;20210;-87
2023/04/17 07:24:56;;;;;;;19.73;12.87;;;;;;;8.42;100.00;98627.16;5114949;28;20239;-88
2023/04/17 07:27:22;;;;;;;19.53;13.13;;;;;;;8.50;100.00;98630.25;5115152;28;20240;-88
2023/04/17 07:29:53;;;;;;;16.87;11.93;;;;;;;8.45;100.00;98634.91;5114575;28;20214;-88
2023/04/17 07:32:20;;;;;;;18.40;12.20;;;;;;;8.46;100.00;98628.69;5114978;28;20214;-88
2023/04/17 07:34:47;;;;;;;18.47;11.43;;;;;;;8.54;100.00;98632.63;5115053;28;20285;-88
2023/04/17 07:37:14;;;;;;;17.73;12.30;;;;;;;8.62;100.00;98634.88;5115013;28;20317;-88
2023/04/17 07:39:41;;;;;;;16.87;11.80;;;;;;;8.71;100.00;98635.22;5115184;28;20206;-89
2023/04/17 07:42:10;;;;;;;16.87;11.90;;;;;;;8.67;100.00;98638.94;5123743;28;20671;-89
2023/04/17 07:44:38;;;;;;;18.03;12.57;;;;;;;8.77;100.00;98641.94;5124517;28;20602;-88
2023/04/17 07:47:04;;;;;;;17.07;11.90;;;;;;;8.83;100.00;98639.84;5120369;28;20217;-89
2023/04/17 07:49:31;;;;;;;17.60;12.17;;;;;;;9.02;100.00;98639.66;5121586;28;20204;-90
2023/04/17 07:51:58;;;;;;;14.57;11.13;;;;;;;9.06;100.00;98635.94;5115402;28;20245;-90
2023/04/17 07:54:24;;;;;;;17.50;12.57;;;;;;;9.11;100.00;98639.16;5114258;28;20252;-90
2023/04/17 07:56:51;;;;;;;16.03;11.47;;;;;;;9.06;100.00;98646.47;5113468;28;20218;-89
2023/04/17 07:59:18;;;;;;;19.13;12.50;;;;;;;9.12;100.00;98638.22;5111834;28;20207;-89
2023/04/17 08:01:45;;;;;;;15.70;11.00;;;;;;;9.22;100.00;98636.75;5111872;28;20225;-88
2023/04/17 08:04:12;;;;;;;17.00;12.02;;;;;;;9.27;100.00;98637.38;5116132;28;20443;-82
2023/04/17 08:06:38;;;;;;;15.27;10.33;;;;;;;9.35;100.00;98643.06;5111634;28;20205;-82
2023/04/17 08:09:06;;;;;;;14.57;11.07;;;;;;;9.39;100.00;98639.31;5113107;28;20273;-89
2023/04/17 08:11:32;;;;;;;18.10;11.20;;;;;;;9.38;100.00;98643.75;5113208;28;20209;-88
2023/04/17 08:13:59;;;;;;;14.07;10.87;;;;;;;9.47;100.00;98650.28;5111703;28;20208;-89
2023/04/17 08:16:26;;;;;;;12.93;9.83;;;;;;;9.51;100.00;98650.03;5113104;28;20238;-89
2023/04/17 08:18:53;;;;;;;13.67;9.37;;;;;;;9.44;100.00;98656.59;5112937;28;20565;-88
2023/04/17 08:21:19;;;;;;;13.63;9.67;;;;;;;9.41;100.00;98653.25;5111957;28;20209;-87
2023/04/17 08:23:46;;;;;;;12.20;9.77;;;;;;;9.38;100.00;98656.94;5112772;28;20211;-87
2023/04/17 08:26:12;;;;;;;13.33;9.00;;;;;;;9.37;100.00;98657.03;5127121;22;20735;-79
2023/04/17 08:28:39;;;;;;;12.67;9.70;;;;;;;9.40;100.00;98659.47;5111628;28;20206;-79
2023/04/17 08:31:07;;;;;;;14.63;9.93;;;;;;;9.44;100.00;98658.38;5111720;28;20206;-80
2023/04/17 08:33:35;;;;;;;13.00;9.47;;;;;;;9.51;100.00;98660.59;5112510;28;20244;-80
2023/04/17 08:36:01;;;;;;;13.73;9.83;;;;;;;9.57;100.00;98659.38;5111083;28;20596;-80
2023/04/17 08:38:30;;;;;;;11.07;8.50;;;;;;;9.53;100.00;98663.13;5112217;28;20213;-80
2023/04/17 08:41:02;;;;;;;14.83;9.70;;;;;;;9.51;100.00;98659.72;5111293;28;20215;-80
2023/04/17 08:43:29;;;;;;;11.47;8.87;;;;;;;9.53;100.00;98663.13;5111235;28;20207;-79
2023/04/17 08:45:56;;;;;;;11.70;8.67;;;;;;;9.58;100.00;98669.00;5111854;28;20227;-80
2023/04/17 08:48:23;;;;;;;11.50;8.10;;;;;;;9.59;100.00;98668.06;5111974;28;20679;-80
2023/04/17 08:50:53;;;;;;;10.30;7.87;;;;;;;9.65;100.00;98668.56;5110439;28;20220;-79
2023/04/17 08:53:20;;;;;;;10.70;7.83;;;;;;;9.65;100.00;98662.44;5111907;28;20213;-79
2023/04/17 08:55:48;;;;;;;10.83;7.40;;;;;;;9.69;100.00;98671.88;5111501;28;20617;-84
2023/04/17 08:58:14;;;;;;;9.47;7.30;;;;;;;9.72;100.00;98674.38;5111026;28;20324;-78
2023/04/17 09:00:42;;;;;;;12.00;7.27;;;;;;;9.85;100.00;98670.06;5111125;28;20265;-82
2023/04/17 09:03:10;;;;;;;7.53;6.57;;;;;;;9.82;100.00;98678.16;5111918;28;20227;-82
2023/04/17 09:05:40;;;;;;;9.17;6.77;;;;;;;9.76;100.00;98670.59;5110573;28;20223;-82
2023/04/17 09:08:11;;;;;;;11.80;7.23;;;;;;;9.74;100.00;98677.75;5111110;28;20242;-79
2023/04/17 09:10:39;;;;;;;9.43;6.40;;;;;;;9.73;100.00;98668.97;5111202;28;20270;-79
2023/04/17 09:13:06;;;;;;;8.20;6.50;;;;;;;9.73;100.00;98674.25;5110741;28;20219;-79
2023/04/17 09:15:33;;;;;;;8.87;6.63;;;;;;;9.82;100.00;98670.22;5111285;28;20230;-79
2023/04/17 09:17:59;;;;;;;7.37;6.20;;;;;;;9.98;100.00;98671.88;5111361;28;20206;-78
2023/04/17 09:20:26;;;;;;;9.13;7.38;;;;;;;10.19;100.00;98675.09;5109054;28;20912;-78
2023/04/17 09:23:00;;;;;;;8.33;6.20;;;;;;;10.27;100.00;98672.88;5111194;28;20239;-76
2023/04/17 09:25:28;;;;;;;6.70;5.63;;;;;;;10.37;100.00;98668.72;5110611;28;20238;-76
2023/04/17 09:28:01;;;;;;;9.13;5.53;;;;;;;10.45;100.00;98671.78;5110374;28;20721;-79
2023/04/17 09:30:27;;;;;;;8.13;6.13;;;;;;;10.53;100.00;98673.00;5110326;28;20206;-78
2023/04/17 09:33:03;;;;;;;6.57;5.20;;;;;;;10.46;100.00;98673.47;5111034;28;20217;-78
2023/04/17 09:35:30;;;;;;;6.50;5.50;;;;;;;10.44;100.00;98670.06;5109978;28;20230;-78
2023/04/17 09:37:58;;;;;;;6.20;5.37;;;;;;;10.42;100.00;98677.22;5111296;28;20214;-77
2023/04/17 09:40:26;;;;;;;6.47;5.10;;;;;;;10.42;100.00;98670.16;5110232;28;20225;-78
2023/04/17 09:42:59;;;;;;;7.53;5.97;;;;;;;10.48;100.00;98672.44;5110385;28;20558;-78
2023/04/17 09:45:31;;;;;;;7.57;5.87;;;;;;;10.51;100.00;98679.34;5110721;28;20230;-79
2023/04/17 09:47:59;;;;;;;6.17;5.20;;;;;;;10.61;100.00;98676.03;5111409;28;20282;-77
2023/04/17 09:50:26;;;;;;;7.27;5.13;;;;;;;10.63;100.00;98679.44;5109402;28;20588;-77
2023/04/17 09:52:54;;;;;;;6.40;5.20;;;;;;;10.80;100.00;98673.97;5111023;28;20208;-77
2023/04/17 09:55:23;;;;;;;6.63;5.50;;;;;;;11.08;100.00;98673.09;5110557;28;20996;-78
2023/04/17 09:57:51;;;;;;;7.20;5.73;;;;;;;11.37;100.00;98672.97;5109986;28;20209;-78
2023/04/17 10:00:22;;;;;;;7.33;5.20;;;;;;;11.64;100.00;98673.00;5110034;28;20213;-78
2023/04/17 10:02:50;;;;;;;7.23;5.97;;;;;;;11.98;100.00;98685.78;5110924;28;20293;-78
2023/04/17 10:05:18;;;;;;;6.90;5.40;;;;;;;12.16;100.00;98677.44;5109868;28;20719;-78
2023/04/17 10:07:45;;;;;;;7.00;5.60;;;;;;;12.29;100.00;98666.88;5110453;28;20225;-78
2023/04/17 10:10:12;;;;;;;6.37;5.10;;;;;;;12.51;100.00;98661.78;5110049;28;20586;-78
2023/04/17 10:12:40;;;;;;;7.00;5.17;;;;;;;12.69;100.00;98655.22;5109835;28;20212;-78
2023/04/17 10:15:12;;;;;;;6.70;5.20;;;;;;;12.85;100.00;98662.00;5110206;28;20239;-78
2023/04/17 10:17:40;;;;;;;7.37;5.67;;;;;;;13.04;100.00;98657.16;5110748;28;20613;-77
2023/04/17 10:20:34;;;;;;;6.40;5.60;;;;;;;13.23;100.00;98657.53;5109058;28;20205;-77
2023/04/17 10:23:33;;;;;;;7.20;5.37;;;;;;;13.25;100.00;98655.59;5110674;28;20209;-77
2023/04/17 10:26:44;;;;;;;5.67;4.83;;;;;;;13.18;99.87;98653.50;5110059;28;20716;-78
2023/04/17 10:29:11;;;;;;;5.80;4.93;;;;;;;13.16;99.01;98637.69;5109852;28;20210;-78
2023/04/17 10:32:27;;;;;;;5.83;5.23;;;;;;;12.99;99.35;98638.03;5110549;28;20212;-78
2023/04/17 10:34:56;;;;;;;6.50;5.07;;;;;;;12.89;98.80;98638.78;5109714;28;20629;-78
2023/04/17 10:38:07;;;;;;;6.03;4.90;;;;;;;12.86;96.09;98628.38;5111042;28;20211;-78
2023/04/17 10:40:35;;;;;;;6.30;5.30;;;;;;;12.72;97.83;98636.44;5115027;28;20204;-79
2023/04/17 10:43:03;;;;;;;6.37;4.90;;;;;;;12.65;99.81;98635.19;5109325;28;20205;-77
2023/04/17 10:45:54;;;;;;;7.10;5.50;;;;;;;12.78;100.00;98633.38;5115290;28;20301;-78
2023/04/17 10:48:22;;;;;;;7.87;5.60;;;;;;;12.86;100.00;98633.66;5115542;28;20217;-78
2023/04/17 10:50:50;;;;;;;6.70;5.97;;;;;;;12.93;100.00;98632.28;5114720;28;20634;-80
2023/04/17 10:53:38;;;;;;;6.83;5.60;;;;;;;12.97;99.37;98628.50;5115048;28;20209;-80
2023/04/17 10:56:04;;;;;;;6.67;5.53;;;;;;;13.03;100.00;98633.38;5115001;28;20230;-78
2023/04/17 10:58:31;;;;;;;7.27;5.70;;;;;;;13.03;99.97;98628.06;5114959;28;20655;-78
2023/04/17 11:01:02;;;;;;;6.53;5.80;;;;;;;12.95;100.00;98625.94;5114432;28;20213;-80
2023/04/17 11:03:30;;;;;;;6.77;5.00;;;;;;;12.74;95.99;98623.91;5115023;28;20270;-76
2023/04/17 11:06:00;;;;;;;5.80;4.87;;;;;;;12.67;96.31;98614.69;5114862;28;20249;-78
2023/04/17 11:08:26;;;;;;;5.43;4.77;;;;;;;12.78;96.15;98609.50;5114592;28;20225;-78
2023/04/17 11:10:53;;;;;;;6.53;4.77;;;;;;;12.80;95.61;98611.09;5113984;28;20280;-77
2023/04/17 11:13:20;;;;;;;4.83;4.33;;;;;;;12.98;94.88;98608.97;5114431;28;20267;-78
2023/04/17 11:15:46;;;;;;;6.07;4.80;;;;;;;13.06;93.74;98606.59;5114567;28;20594;-78
2023/04/17 11:18:13;;;;;;;5.20;4.70;;;;;;;13.21;92.46;98600.19;5114554;28;20671;-78
2023/04/17 11:20:40;;;;;;;5.83;4.60;;;;;;;13.44;93.58;98607.34;5113934;28;20212;-77
2023/04/17 11:23:12;;;;;;;5.00;4.50;;;;;;;13.65;90.94;98605.75;5114330;28;20209;-76